createdAt,value
2023-04-18T00:02:02.955Z,13.63
2023-04-18T00:04:50.651Z,14.18
2023-04-18T00:07:36.617Z,16.77
2023-04-18T00:10:22.457Z,12.07
2023-04-18T00:13:08.368Z,10.48
2023-04-18T00:15:54.333Z,12.68
2023-04-18T00:18:40.253Z,15.70
2023-04-18T00:21:25.893Z,18.85
2023-04-18T00:24:11.696Z,15.07
2023-04-18T00:26:57.288Z,28.33
2023-04-18T00:29:42.602Z,16.30
2023-04-18T00:32:28.536Z,21.02
2023-04-18T00:35:14.241Z,12.55
2023-04-18T00:37:59.852Z,20.95
2023-04-18T00:40:45.357Z,20.67
2023-04-18T00:43:30.757Z,19.00
2023-04-18T00:46:16.294Z,17.48
2023-04-18T00:49:02.542Z,21.27
2023-04-18T00:51:48.379Z,16.30
2023-04-18T00:54:34.057Z,16.60
2023-04-18T00:57:19.385Z,15.55
2023-04-18T01:00:10.143Z,16.88
2023-04-18T01:02:56.114Z,15.68
2023-04-18T01:05:43.178Z,15.68
2023-04-18T01:08:28.626Z,14.60
2023-04-18T01:11:16.500Z,20.00
2023-04-18T01:14:04.204Z,17.50
2023-04-18T01:16:49.881Z,18.55
2023-04-18T01:19:40.810Z,16.65
2023-04-18T01:22:26.989Z,12.98
2023-04-18T01:25:12.501Z,13.25
2023-04-18T01:27:58.846Z,15.27
2023-04-18T01:30:46.558Z,18.42
2023-04-18T01:33:32.045Z,17.48
2023-04-18T01:36:17.681Z,18.95
2023-04-18T01:39:04.078Z,22.25
2023-04-18T01:41:49.796Z,17.75
2023-04-18T01:44:35.438Z,21.85
2023-04-18T01:47:20.921Z,25.67
2023-04-18T01:50:06.862Z,25.63
2023-04-18T01:52:52.501Z,18.55
2023-04-18T01:55:37.907Z,23.52
2023-04-18T01:58:25.253Z,20.73
2023-04-18T02:01:11.149Z,26.13
2023-04-18T02:03:56.882Z,15.77
2023-04-18T02:06:42.882Z,19.25
2023-04-18T02:09:28.621Z,22.42
2023-04-18T02:12:13.995Z,25.27
2023-04-18T02:14:59.624Z,19.05
2023-04-18T02:17:45.897Z,29.45
2023-04-18T02:20:34.950Z,21.75
2023-04-18T02:23:20.392Z,15.32
2023-04-18T02:26:06.054Z,23.10
2023-04-18T02:28:51.941Z,28.50
2023-04-18T02:31:40.850Z,18.67
2023-04-18T02:34:26.512Z,17.17
2023-04-18T02:37:12.128Z,18.52
2023-04-18T02:39:59.600Z,20.63
2023-04-18T02:42:48.516Z,16.48
2023-04-18T02:45:34.080Z,20.25
2023-04-18T02:48:19.520Z,21.85
2023-04-18T02:51:06.421Z,21.25
2023-04-18T02:53:55.180Z,23.38
2023-04-18T02:56:42.971Z,29.08
2023-04-18T02:59:34.777Z,21.80
2023-04-18T03:02:31.958Z,24.83
2023-04-18T03:05:24.730Z,32.05
2023-04-18T03:08:13.858Z,18.70
2023-04-18T03:10:59.719Z,31.15
2023-04-18T03:13:47.184Z,23.20
2023-04-18T03:16:33.429Z,20.88
2023-04-18T03:19:22.024Z,23.65
2023-04-18T03:22:10.053Z,27.35
2023-04-18T03:25:02.845Z,27.60
2023-04-18T03:28:08.922Z,20.98
2023-04-18T03:30:54.401Z,27.65
2023-04-18T03:33:39.988Z,18.73
2023-04-18T03:36:28.920Z,22.35
2023-04-18T03:39:14.820Z,24.88
2023-04-18T03:42:02.134Z,24.38
2023-04-18T03:44:47.796Z,38.22
2023-04-18T03:47:33.713Z,29.98
2023-04-18T03:50:19.818Z,25.02
2023-04-18T03:53:06.752Z,31.40
2023-04-18T03:55:54.775Z,26.42
2023-04-18T03:58:43.743Z,22.85
2023-04-18T04:01:29.319Z,21.45
2023-04-18T04:04:15.663Z,24.50
2023-04-18T04:07:01.841Z,28.35
2023-04-18T04:09:48.902Z,32.85
2023-04-18T04:12:34.860Z,21.55
2023-04-18T04:15:20.519Z,25.15
2023-04-18T04:18:11.636Z,30.27
2023-04-18T04:21:01.152Z,27.00
2023-04-18T04:23:57.035Z,25.38
2023-04-18T04:26:50.851Z,31.83
2023-04-18T04:29:41.268Z,28.83
2023-04-18T04:32:27.665Z,26.88
2023-04-18T04:35:13.752Z,19.45
2023-04-18T04:38:01.734Z,26.95
2023-04-18T04:40:54.064Z,22.15
2023-04-18T04:43:41.345Z,20.48
2023-04-18T04:46:30.393Z,18.33
2023-04-18T04:49:16.758Z,23.10
2023-04-18T04:52:03.148Z,22.80
2023-04-18T04:54:49.731Z,22.48
2023-04-18T04:57:37.631Z,21.10
2023-04-18T05:00:34.005Z,24.80
2023-04-18T05:03:19.917Z,19.73
2023-04-18T05:06:05.972Z,20.80
2023-04-18T05:08:51.680Z,32.78
2023-04-18T05:11:37.366Z,17.73
2023-04-18T05:14:23.146Z,23.48
2023-04-18T05:17:08.943Z,27.58
2023-04-18T05:19:54.733Z,22.23
2023-04-18T05:22:40.566Z,20.02
2023-04-18T05:25:26.950Z,27.08
2023-04-18T05:28:12.588Z,24.10
2023-04-18T05:31:01.503Z,18.55
2023-04-18T05:33:47.278Z,27.52
2023-04-18T05:36:33.116Z,24.48
2023-04-18T05:39:18.765Z,21.35
2023-04-18T05:42:04.257Z,16.48
2023-04-18T05:44:49.793Z,19.15
2023-04-18T05:47:35.573Z,28.65
2023-04-18T05:50:21.651Z,24.58
2023-04-18T05:53:07.292Z,19.33
2023-04-18T05:55:52.838Z,24.40
2023-04-18T05:58:38.530Z,25.02
2023-04-18T06:01:24.050Z,24.90
2023-04-18T06:04:09.738Z,22.38
2023-04-18T06:06:54.989Z,26.95
2023-04-18T06:09:40.514Z,15.95
2023-04-18T06:12:26.162Z,21.33
2023-04-18T06:15:11.769Z,24.20
2023-04-18T06:17:57.252Z,25.88
2023-04-18T06:20:44.058Z,18.27
2023-04-18T06:23:29.827Z,19.23
2023-04-18T06:26:15.925Z,24.20
2023-04-18T06:29:01.423Z,26.88
2023-04-18T06:31:48.534Z,22.98
2023-04-18T06:34:34.155Z,25.50
2023-04-18T06:37:20.016Z,23.73
2023-04-18T06:40:06.588Z,25.45
2023-04-18T06:42:52.412Z,26.65
2023-04-18T06:45:38.345Z,20.15
2023-04-18T06:48:23.993Z,24.40
2023-04-18T06:51:09.452Z,25.92
2023-04-18T06:53:55.003Z,16.55
2023-04-18T06:56:40.819Z,28.30
2023-04-18T06:59:27.215Z,22.80
2023-04-18T07:02:13.242Z,22.20
2023-04-18T07:04:58.954Z,25.63
2023-04-18T07:07:44.543Z,22.80
2023-04-18T07:10:30.124Z,25.15
2023-04-18T07:13:16.131Z,19.95
2023-04-18T07:16:02.191Z,25.20
2023-04-18T07:18:47.457Z,27.67
2023-04-18T07:21:33.052Z,20.48
2023-04-18T07:24:18.416Z,22.67
2023-04-18T07:27:03.838Z,18.83
2023-04-18T07:29:51.056Z,19.40
2023-04-18T07:32:36.566Z,18.95
2023-04-18T07:35:22.576Z,18.67
2023-04-18T07:38:08.624Z,19.15
2023-04-18T07:40:58.676Z,20.15
2023-04-18T07:43:44.982Z,20.30
2023-04-18T07:46:32.441Z,22.58
2023-04-18T07:49:18.352Z,18.98
2023-04-18T07:52:04.525Z,20.50
2023-04-18T07:54:50.441Z,21.93
2023-04-18T07:57:35.923Z,20.85
2023-04-18T08:00:21.638Z,28.10
2023-04-18T08:03:07.809Z,18.38
2023-04-18T08:05:53.730Z,21.25
2023-04-18T08:08:39.535Z,21.58
2023-04-18T08:11:24.693Z,21.27
2023-04-18T08:14:10.189Z,20.55
2023-04-18T08:16:55.800Z,14.98
2023-04-18T08:19:41.520Z,24.63
2023-04-18T08:22:26.894Z,17.92
2023-04-18T08:25:12.721Z,18.88
2023-04-18T08:27:58.939Z,16.35
2023-04-18T08:30:48.784Z,17.48
2023-04-18T08:33:34.516Z,15.73
2023-04-18T08:36:20.123Z,20.73
2023-04-18T08:39:06.500Z,22.08
2023-04-18T08:41:59.555Z,17.70
2023-04-18T08:44:46.773Z,19.10
2023-04-18T08:47:35.359Z,19.38
2023-04-18T08:50:21.490Z,22.02
2023-04-18T08:53:07.564Z,15.68
2023-04-18T08:55:54.519Z,15.98
2023-04-18T08:58:40.455Z,17.00
2023-04-18T09:01:57.215Z,18.25
2023-04-18T09:04:45.517Z,14.75
2023-04-18T09:07:31.143Z,16.50
2023-04-18T09:10:26.430Z,16.48
2023-04-18T09:13:12.550Z,18.30
2023-04-18T09:15:59.248Z,17.85
2023-04-18T09:19:13.131Z,15.48
2023-04-18T09:22:01.060Z,17.05
2023-04-18T09:24:52.838Z,18.52
2023-04-18T09:27:38.307Z,18.10
2023-04-18T09:30:33.142Z,17.75
2023-04-18T09:33:29.149Z,15.93
2023-04-18T09:36:28.657Z,13.38
2023-04-18T09:39:27.304Z,12.32
2023-04-18T09:42:13.981Z,16.77
2023-04-18T09:45:05.613Z,15.45
2023-04-18T09:47:52.175Z,18.88
2023-04-18T09:50:40.290Z,16.75
2023-04-18T09:53:26.685Z,20.98
2023-04-18T09:56:24.031Z,16.95
2023-04-18T09:59:11.400Z,20.02
2023-04-18T10:01:59.229Z,30.25
2023-04-18T10:04:46.946Z,14.27
2023-04-18T10:07:33.183Z,19.45
2023-04-18T10:10:19.217Z,21.98
2023-04-18T10:13:07.126Z,23.13
2023-04-18T10:15:52.928Z,12.23
2023-04-18T10:18:38.888Z,27.05
2023-04-18T10:21:24.780Z,35.83
2023-04-18T10:24:48.664Z,54.45
2023-04-18T10:27:49.691Z,22.00
2023-04-18T10:30:42.575Z,23.25
2023-04-18T10:33:42.416Z,22.08
2023-04-18T10:36:28.781Z,23.42
2023-04-18T10:39:23.240Z,27.73
2023-04-18T10:42:08.825Z,25.13
2023-04-18T10:45:17.280Z,38.13
2023-04-18T10:48:22.097Z,14.52
2023-04-18T10:51:15.724Z,15.52
2023-04-18T10:54:02.371Z,17.67
2023-04-18T10:56:55.189Z,17.25
2023-04-18T10:59:51.173Z,18.92
2023-04-18T11:02:39.186Z,17.80
2023-04-18T11:05:28.014Z,16.90
2023-04-18T11:08:24.263Z,12.57
2023-04-18T11:11:11.412Z,17.33
2023-04-18T11:13:58.672Z,14.57
2023-04-18T11:16:44.226Z,13.93
2023-04-18T11:19:29.957Z,13.63
2023-04-18T11:22:15.999Z,15.60
2023-04-18T11:25:07.236Z,12.48
2023-04-18T11:27:52.984Z,11.35
2023-04-18T11:30:40.862Z,15.00
2023-04-18T11:33:29.078Z,15.10
2023-04-18T11:36:14.826Z,10.73
2023-04-18T11:39:01.055Z,14.45
2023-04-18T11:41:50.489Z,14.43
2023-04-18T11:44:39.764Z,14.52
2023-04-18T11:47:28.797Z,16.98
2023-04-18T11:50:14.730Z,13.13
2023-04-18T11:52:59.943Z,14.68
2023-04-18T11:55:55.968Z,10.80
2023-04-18T11:58:42.207Z,11.88
2023-04-18T12:01:27.865Z,15.13
2023-04-18T12:04:14.456Z,10.70
2023-04-18T12:07:00.977Z,13.68
2023-04-18T12:09:46.657Z,13.27
2023-04-18T12:12:32.371Z,15.95
2023-04-18T12:15:18.949Z,18.60
2023-04-18T12:18:06.210Z,11.75
2023-04-18T12:20:54.206Z,11.25
2023-04-18T12:23:42.524Z,13.45
2023-04-18T12:26:27.997Z,16.27
2023-04-18T12:29:13.732Z,15.63
2023-04-18T12:31:59.355Z,10.00
2023-04-18T12:34:45.037Z,11.30
2023-04-18T12:37:30.720Z,11.55
2023-04-18T12:40:19.058Z,15.23
2023-04-18T12:43:04.765Z,10.18
2023-04-18T12:45:50.540Z,6.50
2023-04-18T12:48:36.371Z,8.63
2023-04-18T12:51:22.972Z,10.15
2023-04-18T12:54:08.997Z,6.60
2023-04-18T12:56:54.657Z,10.60
2023-04-18T12:59:40.095Z,7.30
2023-04-18T13:02:26.646Z,7.20
2023-04-18T13:05:14.320Z,7.00
2023-04-18T13:08:15.392Z,8.13
2023-04-18T13:11:02.853Z,8.95
2023-04-18T13:13:48.417Z,7.30
2023-04-18T13:16:33.829Z,5.18
2023-04-18T13:19:19.261Z,9.48
2023-04-18T13:22:04.865Z,8.07
2023-04-18T13:24:50.581Z,10.23
2023-04-18T13:27:41.816Z,8.27
2023-04-18T13:30:27.751Z,8.45
2023-04-18T13:33:13.463Z,17.65
2023-04-18T13:35:58.813Z,10.70
2023-04-18T13:38:44.194Z,9.27
2023-04-18T13:41:30.146Z,8.43
2023-04-18T13:44:15.981Z,11.00
2023-04-18T13:47:02.803Z,8.48
2023-04-18T13:49:48.384Z,11.45
2023-04-18T13:52:33.721Z,7.75
2023-04-18T13:55:19.810Z,7.88
2023-04-18T13:58:07.062Z,8.90
2023-04-18T14:00:54.036Z,11.68
2023-04-18T14:03:41.277Z,8.90
2023-04-18T14:06:28.961Z,8.40
2023-04-18T14:09:14.676Z,11.35
2023-04-18T14:12:00.306Z,10.85
2023-04-18T14:14:45.974Z,9.35
2023-04-18T14:17:31.581Z,7.55
2023-04-18T14:20:20.523Z,7.40
2023-04-18T14:23:06.075Z,6.70
2023-04-18T14:25:51.825Z,6.72
2023-04-18T14:28:37.553Z,7.03
2023-04-18T14:31:23.081Z,7.43
2023-04-18T14:34:09.602Z,9.80
2023-04-18T14:36:55.417Z,10.52
2023-04-18T14:39:41.151Z,8.75
2023-04-18T14:42:27.312Z,10.18
2023-04-18T14:45:12.906Z,7.18
2023-04-18T14:47:59.279Z,8.55
2023-04-18T14:50:44.900Z,8.43
2023-04-18T14:53:30.647Z,10.27
2023-04-18T14:56:24.293Z,8.85
2023-04-18T14:59:10.031Z,7.30
2023-04-18T15:01:55.774Z,8.63
2023-04-18T15:04:41.206Z,8.75
2023-04-18T15:07:27.027Z,9.15
2023-04-18T15:10:13.108Z,5.72
2023-04-18T15:12:58.124Z,7.57
2023-04-18T15:15:50.979Z,8.95
2023-04-18T15:18:37.007Z,10.00
2023-04-18T15:21:22.834Z,8.68
2023-04-18T15:24:08.347Z,7.85
2023-04-18T15:26:53.885Z,10.18
2023-04-18T15:29:39.434Z,11.90
2023-04-18T15:32:25.049Z,10.07
2023-04-18T15:35:11.835Z,10.52
2023-04-18T15:37:57.759Z,8.60
2023-04-18T15:40:46.117Z,6.55
2023-04-18T15:43:32.109Z,12.48
2023-04-18T15:46:17.685Z,10.80
2023-04-18T15:49:03.500Z,9.27
2023-04-18T15:51:48.885Z,10.88
2023-04-18T15:54:35.733Z,10.57
2023-04-18T15:57:21.861Z,12.88
2023-04-18T16:00:16.225Z,8.55
2023-04-18T16:03:01.891Z,10.23
2023-04-18T16:05:47.806Z,16.17
2023-04-18T16:08:33.580Z,9.27
2023-04-18T16:11:21.705Z,8.82
2023-04-18T16:14:07.483Z,9.55
2023-04-18T16:16:55.020Z,18.70
2023-04-18T16:19:41.065Z,9.10
2023-04-18T16:22:26.877Z,10.73
2023-04-18T16:25:12.165Z,8.52
2023-04-18T16:27:57.521Z,10.55
2023-04-18T16:30:43.954Z,10.05
2023-04-18T16:33:29.541Z,7.72
2023-04-18T16:36:15.467Z,8.50
2023-04-18T16:39:01.220Z,10.40
2023-04-18T16:41:46.575Z,10.10
2023-04-18T16:44:33.271Z,11.05
2023-04-18T16:47:19.261Z,8.40
2023-04-18T16:50:05.924Z,8.38
2023-04-18T16:52:51.121Z,9.80
2023-04-18T16:55:36.680Z,9.35
2023-04-18T16:58:23.202Z,10.00
2023-04-18T17:01:09.049Z,12.30
2023-04-18T17:03:54.579Z,9.20
2023-04-18T17:06:42.190Z,10.13
2023-04-18T17:09:27.877Z,13.65
2023-04-18T17:12:13.187Z,17.08
2023-04-18T17:15:02.589Z,17.45
2023-04-18T17:17:48.542Z,10.07
2023-04-18T17:20:35.924Z,13.25
2023-04-18T17:26:08.592Z,14.85
2023-04-18T17:28:54.295Z,14.07
2023-04-18T17:31:39.855Z,8.40
2023-04-18T17:34:25.656Z,9.60
2023-04-18T17:37:11.697Z,9.90
2023-04-18T17:39:59.012Z,8.77
2023-04-18T17:42:44.407Z,10.77
2023-04-18T17:45:29.951Z,14.20
2023-04-18T17:48:16.350Z,12.70
2023-04-18T17:51:02.228Z,11.63
2023-04-18T17:53:47.933Z,12.98
2023-04-18T17:56:33.437Z,14.52
2023-04-18T17:59:19.145Z,21.27
2023-04-18T18:02:05.549Z,13.25
2023-04-18T18:04:51.708Z,9.90
2023-04-18T18:07:38.382Z,10.60
2023-04-18T18:10:24.535Z,12.95
2023-04-18T18:13:10.107Z,9.07
2023-04-18T18:15:57.252Z,11.63
2023-04-18T18:18:46.539Z,11.90
2023-04-18T18:21:31.799Z,10.30
2023-04-18T18:24:18.752Z,49.08
2023-04-18T18:27:04.697Z,15.50
2023-04-18T18:29:51.380Z,13.93
2023-04-18T18:32:36.893Z,9.70
2023-04-18T18:35:22.350Z,11.00
2023-04-18T18:38:08.060Z,6.10
2023-04-18T18:40:53.538Z,13.95
2023-04-18T18:43:38.929Z,18.75
2023-04-18T18:46:24.569Z,10.52
2023-04-18T18:49:10.360Z,12.90
2023-04-18T18:51:56.955Z,11.02
2023-04-18T18:54:42.866Z,9.90
2023-04-18T18:57:28.398Z,14.30
2023-04-18T19:00:14.309Z,10.43
2023-04-18T19:03:00.404Z,25.02
2023-04-18T19:05:46.549Z,10.07
2023-04-18T19:08:31.925Z,18.15
2023-04-18T19:11:18.910Z,7.18
2023-04-18T19:14:04.693Z,17.63
2023-04-18T19:16:50.720Z,11.65
2023-04-18T19:19:36.563Z,11.07
2023-04-18T19:22:22.371Z,8.90
2023-04-18T19:25:08.926Z,10.50
2023-04-18T19:27:54.145Z,11.68
2023-04-18T19:30:40.160Z,13.43
2023-04-18T19:33:26.352Z,7.65
2023-04-18T19:36:12.484Z,11.38
2023-04-18T19:38:58.217Z,13.73
2023-04-18T19:41:43.639Z,23.13
2023-04-18T19:44:31.241Z,11.77
2023-04-18T19:47:16.752Z,9.13
2023-04-18T19:50:02.365Z,10.48
2023-04-18T19:52:48.159Z,9.60
2023-04-18T19:55:33.337Z,9.88
2023-04-18T19:58:45.223Z,9.10
2023-04-18T20:01:31.282Z,11.45
2023-04-18T20:04:17.186Z,10.48
2023-04-18T20:07:03.142Z,12.23
2023-04-18T20:09:48.670Z,11.50
2023-04-18T20:12:34.457Z,11.30
2023-04-18T20:15:20.023Z,13.82
2023-04-18T20:18:05.494Z,12.20
2023-04-18T20:20:51.363Z,12.98
2023-04-18T20:23:37.703Z,12.98
2023-04-18T20:26:23.403Z,14.57
2023-04-18T20:29:08.971Z,11.45
2023-04-18T20:31:54.592Z,14.00
2023-04-18T20:34:40.360Z,14.00
2023-04-18T20:37:27.813Z,11.88
2023-04-18T20:40:13.397Z,17.15
2023-04-18T20:42:58.983Z,15.98
2023-04-18T20:45:46.032Z,18.60
2023-04-18T20:48:31.651Z,15.18
2023-04-18T20:51:17.219Z,15.68
2023-04-18T20:54:03.457Z,14.70
2023-04-18T20:56:49.018Z,18.15
2023-04-18T20:59:34.454Z,14.07
2023-04-18T21:02:19.915Z,19.40
2023-04-18T21:05:05.869Z,20.55
2023-04-18T21:07:51.332Z,19.60
2023-04-18T21:10:36.809Z,18.92
2023-04-18T21:13:22.064Z,17.77
2023-04-18T21:16:10.247Z,13.90
2023-04-18T21:18:56.085Z,14.73
2023-04-18T21:21:41.557Z,17.63
2023-04-18T21:24:26.920Z,19.80
2023-04-18T21:27:12.280Z,18.65
2023-04-18T21:29:57.588Z,10.60
2023-04-18T21:32:43.083Z,17.60
2023-04-18T21:35:30.084Z,18.75
2023-04-18T21:38:15.815Z,15.00
2023-04-18T21:41:01.790Z,15.45
2023-04-18T21:43:47.853Z,17.70
2023-04-18T21:46:33.620Z,12.80
2023-04-18T21:49:19.676Z,9.32
2023-04-18T21:52:05.382Z,17.95
2023-04-18T21:54:51.178Z,18.35
2023-04-18T21:57:36.530Z,18.42
2023-04-18T22:00:22.079Z,14.68
2023-04-18T22:03:08.892Z,17.20
2023-04-18T22:05:58.174Z,15.93
2023-04-18T22:08:43.887Z,15.00
2023-04-18T22:11:29.393Z,17.10
2023-04-18T22:14:15.061Z,13.70
2023-04-18T22:17:04.877Z,14.30
2023-04-18T22:19:50.714Z,14.05
2023-04-18T22:22:35.855Z,19.58
2023-04-18T22:25:21.530Z,16.98
2023-04-18T22:28:07.291Z,20.15
2023-04-18T22:30:53.075Z,17.00
2023-04-18T22:33:38.505Z,16.77
2023-04-18T22:36:25.084Z,20.17
2023-04-18T22:39:12.134Z,18.00
2023-04-18T22:41:57.528Z,17.33
2023-04-18T22:44:42.908Z,19.88
2023-04-18T22:47:28.460Z,21.27
2023-04-18T22:50:14.729Z,16.83
2023-04-18T22:53:00.347Z,21.27
2023-04-18T22:55:46.469Z,17.63
2023-04-18T22:58:32.013Z,19.25
2023-04-18T23:01:17.935Z,16.50
2023-04-18T23:04:03.735Z,16.80
2023-04-18T23:06:49.511Z,16.50
2023-04-18T23:09:35.094Z,17.33
2023-04-18T23:12:21.101Z,23.42
2023-04-18T23:15:07.297Z,13.70
2023-04-18T23:17:53.885Z,20.95
2023-04-18T23:20:39.717Z,19.92
2023-04-18T23:23:25.268Z,19.20
2023-04-18T23:26:16.841Z,32.30
2023-04-18T23:29:02.425Z,33.42
2023-04-18T23:31:48.222Z,21.15
2023-04-18T23:34:33.656Z,33.95
2023-04-18T23:37:19.533Z,29.85
2023-04-18T23:40:06.973Z,19.67
2023-04-18T23:42:52.604Z,23.40
2023-04-18T23:45:38.095Z,20.15
2023-04-18T23:48:23.569Z,18.23
2023-04-18T23:51:09.130Z,19.08
2023-04-18T23:53:54.506Z,21.50
2023-04-18T23:56:39.833Z,18.23
2023-04-18T23:59:25.357Z,23.90
